GCXO/TFN METAR and TAF weather

Enter ICAO airport designator
Station Type Date Time Source
GCXO METAR 2019/01/21 22:31 UTC NOAA

GCXO 212231Z 30008KT 280V340 5000 DZ FEW006 SCT018 BKN040 11/09 Q1026 NOSIG


Station Type Date Time Source
GCXO Decoded METAR 2019/01/21 22:31 UTC NOAA

Tenerife / Los Rodeos, Spain (GCXO) 28-28N 016-19W 617M
Jan 21, 2019 - 05:31 PM EST / 2019.01.21 2231 UTC
Wind: from the WNW (300 degrees) at 9 MPH (8 KT) (direction variable):0
Visibility: 3 mile(s):0
Sky conditions: mostly cloudy
Weather: drizzle
Temperature: 51 F (11 C)
Dew Point: 48 F (9 C)
Relative Humidity: 87%
Pressure (altimeter): 30.30 in. Hg (1026 hPa)
ob: GCXO 212231Z 30008KT 280V340 5000 DZ FEW006 SCT018 BKN040 11/09 Q1026 NOSIG
cycle: 22

Station Type Date Time Source
GCXO TAF 2019/01/21 21:27 UTC NOAA

TAF GCXO 212000Z 2121/2221 34010KT 8000 SCT020 TX15/2214Z TN10/2206Z PROB40
TEMPO 2121/2209 4500 DZ BKN013
BECMG 2207/2209 08006KT


Example: see airport list